NA25 weather

Holen Aerial Spray Airstrip
Bantry, North Dakota, United States

Public forecast

Using degrees Fahrenheit for public forecast. Weather courtesy of forecast.io.

Closest aviation weather report (METAR) to Holen Aerial Spray Airstrip

Closest report is Rugby Municipal Airport, 25.9 nm (47.9 km) ESE. Retrieved 2020/08/06 01:35 UTC (0 seconds ago):

KRUG 060135Z AUTO 00000KT 10SM CLR 23/17 A2992 RMK AO2

Closest aviation forecast (TAF) to Holen Aerial Spray Airstrip

Closest forecast is Minot Air Force Base, 28.5 nm (52.8 km) W. Retrieved 2020-08-06 01:27 UTC (0 seconds ago):

TAF KMIB 060105Z 0601/0707 VRB06KT 9999 FEW040 QNH2991INS BECMG 0603/0604 18006KT 9999 FEW030 QNH2992INS BECMG 0609/0610 21006KT 9000 BR FEW030 QNH2991INS BECMG 0613/0614 17009KT 9999 NSW FEW050 QNH2980INS BECMG 0700/0701 11009KT 9999 FEW040 QNH2973INS TX28/0623Z TN14/0612Z